Time;durP1;ratioP1;P1;durP2;ratioP2;P2;SDS_P1;SDS_P2;PMS_P1;PMS_P2;Temp;Humidity;BMP_temperature;BMP_pressure;BME280_temperature;BME280_humidity;BME280_pressure;Samples;Min_cycle;Max_cycle;Signal;HPM_P1;HPM_P2
2023/01/28 00:00:46;;;;;;;;;;;;;;;19.56;37.73;102894.31;7273103;19;153990;-74
2023/01/28 00:03:14;;;;;;;;;;;;;;;19.57;37.53;102885.66;7261952;19;153940;-73
2023/01/28 00:05:41;;;;;;;;;;;;;;;19.59;37.63;102885.38;7268365;19;153976;-73
2023/01/28 00:08:09;;;;;;;;;;;;;;;19.57;37.49;102888.47;7265678;19;154780;-74
2023/01/28 00:10:38;;;;;;;;;;;;;;;19.64;37.83;102903.16;7266597;19;154875;-73
2023/01/28 00:13:05;;;;;;;;;;;;;;;19.69;37.49;102899.59;7266663;19;153320;-73
2023/01/28 00:15:33;;;;;;;;;;;;;;;19.72;37.72;102894.31;7265181;19;153289;-73
2023/01/28 00:18:00;;;;;;;;;;;;;;;19.76;37.59;102895.47;7264961;19;153487;-74
2023/01/28 00:20:27;;;;;;;;;;;;;;;19.81;37.49;102901.19;7263774;19;154058;-73
2023/01/28 00:22:53;;;;;;;;;;;;;;;19.84;37.56;102892.28;7271350;19;153217;-74
2023/01/28 00:25:20;;;;;;;;;;;;;;;19.88;37.37;102884.19;7265581;19;153390;-77
2023/01/28 00:27:48;;;;;;;;;;;;;;;19.93;37.60;102884.28;7266968;19;157303;-77
2023/01/28 00:30:15;;;;;;;;;;;;;;;19.97;37.50;102889.09;7262364;19;154367;-76
2023/01/28 00:32:42;;;;;;;;;;;;;;;20.02;37.37;102891.13;7265830;19;153482;-77
2023/01/28 00:35:10;;;;;;;;;;;;;;;20.05;36.98;102896.22;7265908;19;153974;-77
2023/01/28 00:37:38;;;;;;;;;;;;;;;20.12;37.27;102884.84;7264293;19;155009;-77
2023/01/28 00:40:05;;;;;;;;;;;;;;;20.17;36.95;102884.91;7269449;19;153634;-77
2023/01/28 00:42:33;;;;;;;;;;;;;;;20.19;36.82;102886.34;7267204;19;154803;-77
2023/01/28 00:45:00;;;;;;;;;;;;;;;20.23;36.72;102884.72;7271830;19;154515;-77
2023/01/28 00:47:27;;;;;;;;;;;;;;;20.29;36.93;102891.25;7263615;19;154234;-78
2023/01/28 00:49:54;;;;;;;;;;;;;;;20.33;36.96;102881.22;7267294;19;153458;-77
2023/01/28 00:52:21;;;;;;;;;;;;;;;20.35;36.87;102879.03;7259141;19;153315;-78
2023/01/28 00:54:48;;;;;;;;;;;;;;;20.38;36.47;102881.31;7266291;19;153468;-78
2023/01/28 00:57:15;;;;;;;;;;;;;;;20.41;36.57;102878.81;7263564;19;154044;-78
2023/01/28 00:59:42;;;;;;;;;;;;;;;20.47;36.66;102874.13;7266374;19;153217;-77
2023/01/28 01:02:12;;;;;;;;;;;;;;;20.50;36.46;102881.16;7268533;19;153463;-77
2023/01/28 01:04:39;;;;;;;;;;;;;;;20.53;36.38;102877.84;7273440;19;154707;-78
2023/01/28 01:07:06;;;;;;;;;;;;;;;20.56;36.19;102875.34;7264522;19;153512;-77
2023/01/28 01:09:33;;;;;;;;;;;;;;;20.59;36.04;102877.63;7262610;19;155636;-77
2023/01/28 01:12:00;;;;;;;;;;;;;;;20.63;35.88;102877.94;7261381;19;153698;-78
2023/01/28 01:14:27;;;;;;;;;;;;;;;20.65;36.10;102886.97;7265790;19;153354;-78
2023/01/28 01:16:54;;;;;;;;;;;;;;;20.66;35.73;102874.63;7263800;19;154435;-77
2023/01/28 01:19:20;;;;;;;;;;;;;;;20.70;35.73;102884.25;7264484;19;154339;-78
2023/01/28 01:21:49;;;;;;;;;;;;;;;20.71;35.51;102875.56;7246967;19;152743;-77
2023/01/28 01:24:16;;;;;;;;;;;;;;;20.71;35.87;102878.38;7253295;19;153708;-77
2023/01/28 01:26:43;;;;;;;;;;;;;;;20.73;35.68;102883.69;7244858;19;153887;-77
2023/01/28 01:29:10;;;;;;;;;;;;;;;20.74;35.70;102883.44;7229352;19;156519;-77
2023/01/28 01:31:40;;;;;;;;;;;;;;;20.76;35.57;102880.34;7206395;19;161636;-78
2023/01/28 01:34:08;;;;;;;;;;;;;;;20.77;35.40;102877.28;7244581;19;154207;-78
2023/01/28 01:36:35;;;;;;;;;;;;;;;20.76;35.11;102875.59;7257516;19;154608;-77
2023/01/28 01:39:02;;;;;;;;;;;;;;;20.77;35.56;102882.06;7256906;19;154186;-77
2023/01/28 01:41:30;;;;;;;;;;;;;;;20.79;35.17;102882.66;7262083;19;156069;-77
2023/01/28 01:43:58;;;;;;;;;;;;;;;20.78;34.99;102887.44;7259324;19;153848;-77
2023/01/28 01:46:26;;;;;;;;;;;;;;;20.79;35.05;102888.28;7257595;19;153385;-78
2023/01/28 01:48:56;;;;;;;;;;;;;;;20.78;35.18;102879.00;7263829;19;154831;-77
2023/01/28 01:51:27;;;;;;;;;;;;;;;20.76;35.17;102878.41;7257295;19;153622;-77
2023/01/28 01:53:56;;;;;;;;;;;;;;;20.77;35.00;102876.44;7256728;19;154176;-78
2023/01/28 01:56:26;;;;;;;;;;;;;;;20.76;34.90;102875.59;7253408;19;155640;-77
2023/01/28 01:58:54;;;;;;;;;;;;;;;20.76;34.90;102883.16;7255276;19;153406;-78
2023/01/28 02:01:23;;;;;;;;;;;;;;;20.73;35.33;102875.28;7259429;19;155793;-78
2023/01/28 02:03:50;;;;;;;;;;;;;;;20.72;35.15;102888.47;7252755;19;155947;-77
2023/01/28 02:06:17;;;;;;;;;;;;;;;20.71;35.33;102881.19;7257252;19;152372;-77
2023/01/28 02:08:44;;;;;;;;;;;;;;;20.68;35.13;102886.44;7256578;19;154911;-78
2023/01/28 02:11:13;;;;;;;;;;;;;;;20.66;34.87;102883.91;7264658;19;153756;-78
2023/01/28 02:13:43;;;;;;;;;;;;;;;20.65;35.34;102887.84;7246104;19;153739;-77
2023/01/28 02:16:11;;;;;;;;;;;;;;;20.62;34.95;102882.75;7252658;19;153347;-79
2023/01/28 02:18:38;;;;;;;;;;;;;;;20.61;35.04;102892.28;7260971;19;153917;-77
2023/01/28 02:21:15;;;;;;;;;;;;;;;20.60;35.30;102892.53;7261619;19;154404;-80
2023/01/28 02:23:51;;;;;;;;;;;;;;;20.58;35.17;102891.97;7257915;19;153713;-77
2023/01/28 02:26:18;;;;;;;;;;;;;;;20.53;35.32;102898.34;7255972;19;154030;-78
2023/01/28 02:28:51;;;;;;;;;;;;;;;20.52;35.05;102882.63;7256094;19;154016;-76
2023/01/28 02:31:28;;;;;;;;;;;;;;;20.54;34.94;102890.75;7251607;19;153319;-77
2023/01/28 02:33:59;;;;;;;;;;;;;;;20.54;35.16;102894.41;7264997;19;152624;-77
2023/01/28 02:36:32;;;;;;;;;;;;;;;20.53;35.05;102887.13;7255584;19;154911;-78
2023/01/28 02:39:06;;;;;;;;;;;;;;;20.53;35.17;102884.31;7253056;19;153883;-77
2023/01/28 02:41:37;;;;;;;;;;;;;;;20.49;35.20;102880.31;7258724;19;155078;-79
2023/01/28 02:44:04;;;;;;;;;;;;;;;20.52;36.12;102888.22;7256081;19;154138;-76
2023/01/28 02:49:14;;;;;;;;;;;;;;;20.50;36.37;102886.78;7256898;19;155106;-78
2023/01/28 02:51:50;;;;;;;;;;;;;;;20.48;37.01;102891.81;7258356;19;156432;-78
2023/01/28 02:54:18;;;;;;;;;;;;;;;20.46;36.94;102894.88;7265610;19;153892;-78
2023/01/28 02:56:50;;;;;;;;;;;;;;;20.47;37.09;102899.38;7254874;19;155889;-77
2023/01/28 02:59:30;;;;;;;;;;;;;;;20.43;36.79;102903.84;7240443;19;153385;-78
2023/01/28 03:02:07;;;;;;;;;;;;;;;20.41;37.00;102908.84;7257515;19;153414;-77
2023/01/28 03:04:38;;;;;;;;;;;;;;;20.42;36.86;102911.41;7254835;19;154859;-78
2023/01/28 03:07:06;;;;;;;;;;;;;;;20.39;37.27;102909.13;7256545;19;154435;-77
2023/01/28 03:09:34;;;;;;;;;;;;;;;20.38;37.31;102910.22;7254929;19;153183;-77
2023/01/28 03:38:40;;;;;;;;;;;;;;;20.10;37.29;102915.94;7265151;19;157079;-76
2023/01/28 03:41:09;;;;;;;;;;;;;;;20.10;37.55;102920.72;7263982;19;156246;-78
2023/01/28 03:43:36;;;;;;;;;;;;;;;20.06;37.50;102919.53;7260619;19;153690;-76
2023/01/28 03:46:05;;;;;;;;;;;;;;;20.05;37.43;102920.63;7257870;19;153851;-76
2023/01/28 03:48:32;;;;;;;;;;;;;;;19.99;37.51;102934.56;7264011;19;154010;-75
2023/01/28 03:51:00;;;;;;;;;;;;;;;19.99;37.93;102928.09;7247461;19;154844;-78
2023/01/28 03:53:27;;;;;;;;;;;;;;;19.95;37.56;102916.56;7260389;19;154914;-77
2023/01/28 03:55:55;;;;;;;;;;;;;;;19.92;37.70;102925.50;7261193;19;153403;-77
2023/01/28 03:58:25;;;;;;;;;;;;;;;19.95;37.76;102927.78;7259746;19;154951;-77
2023/01/28 04:00:53;;;;;;;;;;;;;;;19.92;37.89;102930.25;7258544;19;154280;-77
2023/01/28 04:03:20;;;;;;;;;;;;;;;19.92;38.15;102928.31;7266319;19;155236;-77
2023/01/28 04:05:57;;;;;;;;;;;;;;;19.90;38.14;102936.13;7261069;19;154215;-77
2023/01/28 04:08:24;;;;;;;;;;;;;;;19.88;37.81;102929.94;7262023;19;153402;-77
2023/01/28 04:10:51;;;;;;;;;;;;;;;19.86;37.79;102931.28;7261634;19;153711;-78
2023/01/28 04:13:18;;;;;;;;;;;;;;;19.86;38.21;102929.31;7258583;19;153743;-77
2023/01/28 04:15:44;;;;;;;;;;;;;;;19.85;38.19;102932.41;7242459;19;153461;-77
2023/01/28 04:18:11;;;;;;;;;;;;;;;19.82;38.14;102932.88;7263094;19;154417;-77
2023/01/28 04:20:39;;;;;;;;;;;;;;;19.85;38.17;102941.63;7257987;19;156460;-77
2023/01/28 04:23:07;;;;;;;;;;;;;;;19.81;38.17;102931.19;7259763;19;153205;-79
2023/01/28 04:25:35;;;;;;;;;;;;;;;19.80;37.86;102930.38;7266061;19;154533;-78
2023/01/28 04:28:02;;;;;;;;;;;;;;;19.80;38.05;102926.69;7261604;19;153668;-76
2023/01/28 04:30:29;;;;;;;;;;;;;;;19.77;37.97;102930.84;7261293;19;153636;-78
2023/01/28 04:32:56;;;;;;;;;;;;;;;19.75;38.26;102930.28;7258812;19;154226;-77
2023/01/28 04:35:23;;;;;;;;;;;;;;;19.73;38.29;102945.63;7259725;19;153759;-77
2023/01/28 04:37:50;;;;;;;;;;;;;;;19.71;38.10;102937.50;7261650;19;155321;-78
2023/01/28 04:40:17;;;;;;;;;;;;;;;19.73;38.01;102940.03;7245531;19;153457;-79
2023/01/28 04:42:51;;;;;;;;;;;;;;;19.70;38.37;102937.75;7249151;19;153172;-77
2023/01/28 04:45:18;;;;;;;;;;;;;;;19.67;38.40;102932.66;7259528;19;155151;-77
2023/01/28 04:47:45;;;;;;;;;;;;;;;19.62;38.32;102927.81;7267570;19;157432;-77
2023/01/28 04:50:12;;;;;;;;;;;;;;;19.61;38.46;102928.91;7260441;19;154381;-77
2023/01/28 04:52:39;;;;;;;;;;;;;;;19.62;38.18;102921.34;7260571;19;153068;-77
2023/01/28 04:55:06;;;;;;;;;;;;;;;19.60;38.15;102923.53;7259796;19;153739;-77
2023/01/28 04:57:33;;;;;;;;;;;;;;;19.58;38.29;102932.19;7260355;19;153445;-77
2023/01/28 05:00:00;;;;;;;;;;;;;;;19.56;38.48;102930.75;7259243;19;154652;-77
2023/01/28 05:02:27;;;;;;;;;;;;;;;19.55;38.32;102929.91;7261092;19;153307;-77
2023/01/28 05:04:54;;;;;;;;;;;;;;;19.51;38.36;102921.16;7262555;19;154210;-77
2023/01/28 05:07:20;;;;;;;;;;;;;;;19.48;38.56;102918.03;7254164;19;154147;-77
2023/01/28 05:09:47;;;;;;;;;;;;;;;19.48;38.45;102906.81;7257892;19;153484;-78
2023/01/28 05:12:14;;;;;;;;;;;;;;;19.46;38.63;102909.84;7259792;19;156283;-78
2023/01/28 05:14:41;;;;;;;;;;;;;;;19.47;38.84;102919.13;7260267;19;153221;-78
2023/01/28 05:17:08;;;;;;;;;;;;;;;19.46;38.72;102907.06;7261106;19;157491;-78
2023/01/28 05:19:35;;;;;;;;;;;;;;;19.42;38.82;102919.84;7260277;19;153527;-78
2023/01/28 05:22:01;;;;;;;;;;;;;;;19.43;38.97;102915.97;7258805;19;154437;-78
2023/01/28 05:24:28;;;;;;;;;;;;;;;19.41;38.95;102920.09;7256916;19;152153;-78
2023/01/28 05:26:56;;;;;;;;;;;;;;;19.38;38.65;102909.41;7261242;19;154392;-78
2023/01/28 05:29:22;;;;;;;;;;;;;;;19.35;38.91;102910.72;7266210;19;153459;-77
2023/01/28 05:31:49;;;;;;;;;;;;;;;19.36;38.71;102914.38;7244561;19;156269;-78
2023/01/28 05:34:16;;;;;;;;;;;;;;;19.36;39.15;102920.00;7252558;19;154476;-78
2023/01/28 05:36:43;;;;;;;;;;;;;;;19.34;38.78;102923.06;7257744;19;153815;-77
2023/01/28 05:39:10;;;;;;;;;;;;;;;19.28;38.89;102929.66;7256314;19;153313;-77
2023/01/28 05:41:37;;;;;;;;;;;;;;;19.27;38.91;102930.75;7255330;19;153795;-77
2023/01/28 05:44:03;;;;;;;;;;;;;;;19.27;39.13;102919.56;7254446;19;154481;-78
2023/01/28 05:46:30;;;;;;;;;;;;;;;19.24;39.31;102908.84;7258596;19;155241;-78
2023/01/28 05:48:57;;;;;;;;;;;;;;;19.23;39.19;102909.09;7258641;19;152202;-78
2023/01/28 05:51:24;;;;;;;;;;;;;;;19.21;39.19;102909.38;7265901;19;154777;-80
2023/01/28 05:53:51;;;;;;;;;;;;;;;19.21;39.06;102925.34;7257678;19;153285;-77
2023/01/28 05:56:18;;;;;;;;;;;;;;;19.21;39.00;102919.72;7259195;19;155793;-77
2023/01/28 05:58:45;;;;;;;;;;;;;;;19.17;39.12;102921.34;7240718;19;155685;-77
2023/01/28 06:01:11;;;;;;;;;;;;;;;19.19;39.35;102930.31;7256739;19;153173;-77
2023/01/28 06:03:38;;;;;;;;;;;;;;;19.14;39.54;102930.22;7258987;19;154840;-77
2023/01/28 06:06:05;;;;;;;;;;;;;;;19.13;39.56;102940.56;7258621;19;154098;-78
2023/01/28 06:08:32;;;;;;;;;;;;;;;19.14;39.39;102944.22;7258042;19;153891;-78
2023/01/28 06:10:59;;;;;;;;;;;;;;;19.09;39.62;102945.84;7258288;19;155419;-78
2023/01/28 06:13:26;;;;;;;;;;;;;;;19.07;39.67;102945.25;7263867;19;155184;-78
2023/01/28 06:15:53;;;;;;;;;;;;;;;19.08;39.58;102938.53;7258391;19;153623;-79
2023/01/28 06:18:19;;;;;;;;;;;;;;;19.06;39.36;102939.88;7255847;19;154236;-78
2023/01/28 06:20:48;;;;;;;;;;;;;;;19.05;39.26;102924.19;7255425;19;154128;-78
2023/01/28 06:23:14;;;;;;;;;;;;;;;19.04;39.21;102940.13;7255004;19;154326;-79
2023/01/28 06:25:41;;;;;;;;;;;;;;;19.04;39.12;102942.94;7256272;19;153737;-78
2023/01/28 06:28:08;;;;;;;;;;;;;;;19.03;39.52;102944.03;7257237;19;153883;-78
2023/01/28 06:30:35;;;;;;;;;;;;;;;19.04;39.44;102934.53;7257520;19;154114;-80
2023/01/28 06:33:02;;;;;;;;;;;;;;;19.01;39.51;102946.25;7255034;19;153378;-77
2023/01/28 06:35:29;;;;;;;;;;;;;;;19.00;39.25;102947.34;7267991;19;153837;-78
2023/01/28 06:37:56;;;;;;;;;;;;;;;18.99;39.23;102951.22;7257584;19;155631;-77
2023/01/28 06:40:23;;;;;;;;;;;;;;;18.98;39.49;102955.16;7260353;19;153878;-78
2023/01/28 06:42:50;;;;;;;;;;;;;;;18.96;39.39;102948.09;7256486;19;154744;-78
2023/01/28 06:45:17;;;;;;;;;;;;;;;18.92;39.29;102949.69;7256971;19;153890;-78
2023/01/28 06:47:44;;;;;;;;;;;;;;;18.92;39.60;102949.69;7258870;19;153989;-77
2023/01/28 06:50:11;;;;;;;;;;;;;;;18.91;39.20;102945.19;7259907;19;154448;-77
2023/01/28 06:52:38;;;;;;;;;;;;;;;18.89;39.58;102953.00;7257745;19;156792;-78
2023/01/28 06:55:06;;;;;;;;;;;;;;;18.91;39.75;102951.63;7259561;19;154069;-77
2023/01/28 06:57:33;;;;;;;;;;;;;;;18.92;39.51;102955.28;7266543;19;153699;-78
2023/01/28 07:00:00;;;;;;;;;;;;;;;18.93;39.69;102957.84;7258747;19;155366;-76
2023/01/28 07:02:27;;;;;;;;;;;;;;;18.96;39.82;102960.16;7264091;19;153889;-77
2023/01/28 07:04:54;;;;;;;;;;;;;;;19.00;39.54;102952.09;7261913;19;155119;-77
2023/01/28 07:07:21;;;;;;;;;;;;;;;19.03;39.59;102960.84;7262489;19;152769;-76
2023/01/28 07:09:48;;;;;;;;;;;;;;;19.08;39.79;102960.94;7263620;19;154144;-77
2023/01/28 07:12:15;;;;;;;;;;;;;;;19.13;39.92;102964.94;7268399;19;153584;-77
2023/01/28 07:14:42;;;;;;;;;;;;;;;19.17;39.92;102967.00;7268436;19;153340;-78
2023/01/28 07:17:08;;;;;;;;;;;;;;;19.23;39.86;102965.16;7277951;19;154725;-77
2023/01/28 07:19:35;;;;;;;;;;;;;;;19.28;39.83;102957.69;7271043;19;153358;-77
2023/01/28 07:22:02;;;;;;;;;;;;;;;19.34;39.97;102962.31;7270092;19;154739;-78
2023/01/28 07:24:29;;;;;;;;;;;;;;;19.39;39.92;102967.16;7266969;19;154709;-77
2023/01/28 07:26:56;;;;;;;;;;;;;;;19.44;40.13;102967.28;7267301;19;152957;-77
2023/01/28 07:29:23;;;;;;;;;;;;;;;19.49;39.70;102964.56;7266897;19;154007;-77
2023/01/28 07:31:50;;;;;;;;;;;;;;;19.54;39.81;102961.84;7265978;19;154125;-77
2023/01/28 07:34:17;;;;;;;;;;;;;;;19.59;39.57;102952.69;7262351;19;153311;-77
2023/01/28 07:36:44;;;;;;;;;;;;;;;19.64;39.82;102964.00;7267690;19;153670;-77
2023/01/28 07:39:10;;;;;;;;;;;;;;;19.69;39.80;102952.88;7271472;19;155386;-77
2023/01/28 07:41:37;;;;;;;;;;;;;;;19.74;39.44;102947.34;7265193;19;152658;-77
2023/01/28 07:44:04;;;;;;;;;;;;;;;19.78;39.34;102960.59;7265247;19;154003;-78
2023/01/28 07:46:31;;;;;;;;;;;;;;;19.83;39.44;102952.28;7266307;19;153465;-77
2023/01/28 07:48:58;;;;;;;;;;;;;;;19.88;39.04;102954.31;7268969;19;154034;-79
2023/01/28 07:51:25;;;;;;;;;;;;;;;19.92;39.17;102961.13;7267441;19;153984;-77
2023/01/28 07:53:52;;;;;;;;;;;;;;;19.97;39.11;102962.06;7269339;19;153719;-77
2023/01/28 07:56:19;;;;;;;;;;;;;;;20.02;39.21;102966.06;7268157;19;153632;-80
2023/01/28 07:58:48;;;;;;;;;;;;;;;20.06;39.30;102970.03;7269225;19;153863;-78
2023/01/28 08:01:15;;;;;;;;;;;;;;;20.11;38.98;102973.78;7275373;19;153842;-78
2023/01/28 08:03:42;;;;;;;;;;;;;;;20.16;39.05;102973.88;7265230;19;156622;-78
2023/01/28 08:06:10;;;;;;;;;;;;;;;20.21;38.77;102971.16;7266797;19;156184;-78
2023/01/28 08:08:37;;;;;;;;;;;;;;;20.25;39.22;102965.88;7267852;19;154052;-77
2023/01/28 08:11:07;;;;;;;;;;;;;;;20.31;38.78;102971.31;7266215;19;154494;-78
2023/01/28 08:13:34;;;;;;;;;;;;;;;20.34;38.91;102953.97;7265765;19;153115;-77
2023/01/28 08:16:01;;;;;;;;;;;;;;;20.38;38.58;102957.97;7271708;19;153084;-77
2023/01/28 08:18:29;;;;;;;;;;;;;;;20.44;39.01;102955.22;7270081;19;153882;-79
2023/01/28 08:20:57;;;;;;;;;;;;;;;20.47;38.82;102961.16;7266805;19;153142;-78
2023/01/28 08:23:25;;;;;;;;;;;;;;;20.52;38.52;102966.00;7275039;19;154483;-77
2023/01/28 08:25:53;;;;;;;;;;;;;;;20.56;38.58;102965.22;7270254;19;153680;-78
2023/01/28 08:28:20;;;;;;;;;;;;;;;20.60;38.10;102962.75;7269713;19;153158;-78
2023/01/28 08:30:47;;;;;;;;;;;;;;;20.65;38.14;102965.63;7266489;19;153797;-78
2023/01/28 08:33:15;;;;;;;;;;;;;;;20.67;37.85;102960.63;7271609;19;154031;-77
2023/01/28 08:35:42;;;;;;;;;;;;;;;20.69;38.21;102964.84;7264672;19;153683;-77
2023/01/28 08:38:11;;;;;;;;;;;;;;;20.72;38.03;102963.47;7267857;19;154284;-77
2023/01/28 08:40:38;;;;;;;;;;;;;;;20.75;38.15;102972.25;7266726;19;153154;-77
2023/01/28 08:43:05;;;;;;;;;;;;;;;20.75;38.12;102968.56;7263074;19;154660;-77
2023/01/28 08:45:32;;;;;;;;;;;;;;;20.78;37.73;102971.72;7272553;19;154720;-76
2023/01/28 08:48:00;;;;;;;;;;;;;;;20.79;37.74;102981.84;7267051;19;154143;-78
2023/01/28 08:50:31;;;;;;;;;;;;;;;20.81;37.85;102973.13;7266337;19;154811;-78
2023/01/28 08:53:00;;;;;;;;;;;;;;;20.80;37.62;102977.91;7268097;19;152847;-78
2023/01/28 08:55:27;;;;;;;;;;;;;;;20.82;37.67;102975.69;7264908;19;154407;-78
2023/01/28 08:57:54;;;;;;;;;;;;;;;20.82;37.49;102983.25;7267571;19;155217;-78
2023/01/28 09:00:24;;;;;;;;;;;;;;;20.81;37.99;102981.56;7264598;19;153838;-77
2023/01/28 09:02:51;;;;;;;;;;;;;;;20.81;37.96;102981.56;7267745;19;153845;-77
2023/01/28 09:05:19;;;;;;;;;;;;;;;20.80;37.72;102991.13;7266132;19;154698;-77
2023/01/28 09:07:47;;;;;;;;;;;;;;;20.79;38.07;102992.22;7275948;19;154280;-78
2023/01/28 09:10:15;;;;;;;;;;;;;;;20.81;37.66;102987.19;7264118;19;154331;-77
2023/01/28 09:12:43;;;;;;;;;;;;;;;20.79;36.34;102987.47;7245783;19;153616;-77
2023/01/28 09:15:10;;;;;;;;;;;;;;;20.77;36.60;102989.66;7259057;19;154785;-77
2023/01/28 09:17:37;;;;;;;;;;;;;;;20.74;36.28;102994.97;7263468;19;153967;-78
2023/01/28 09:20:05;;;;;;;;;;;;;;;20.69;36.56;103000.50;7262686;19;153797;-78
2023/01/28 09:22:32;;;;;;;;;;;;;;;20.39;34.45;103001.78;7266679;19;153930;-77
2023/01/28 09:24:59;;;;;;;;;;;;;;;20.48;35.48;103004.16;7262436;19;153948;-77
2023/01/28 09:27:27;;;;;;;;;;;;;;;20.47;35.00;103003.28;7272838;19;153703;-78
2023/01/28 09:29:54;;;;;;;;;;;;;;;20.48;35.00;103007.81;7262026;19;153726;-77
2023/01/28 09:32:22;;;;;;;;;;;;;;;20.49;34.90;103017.09;7265429;19;153932;-77
2023/01/28 09:34:49;;;;;;;;;;;;;;;20.45;35.06;103008.28;7263936;19;155424;-76
2023/01/28 09:37:17;;;;;;;;;;;;;;;20.40;34.77;103005.41;7262916;19;154606;-78
2023/01/28 09:39:44;;;;;;;;;;;;;;;20.39;34.77;103018.63;7261909;19;153862;-78
2023/01/28 09:42:20;;;;;;;;;;;;;;;20.38;34.60;103010.44;7262749;19;154741;-76
2023/01/28 09:44:55;;;;;;;;;;;;;;;20.33;35.06;103002.78;7259237;19;156288;-77
2023/01/28 09:47:26;;;;;;;;;;;;;;;20.33;34.75;103007.56;7265724;19;153274;-77
2023/01/28 09:49:57;;;;;;;;;;;;;;;20.29;35.16;103017.56;7270245;19;153712;-77
2023/01/28 09:52:25;;;;;;;;;;;;;;;20.27;35.02;103008.53;7260183;19;155553;-77
2023/01/28 09:55:02;;;;;;;;;;;;;;;20.23;34.97;103012.97;7258689;19;154338;-77
2023/01/28 09:57:36;;;;;;;;;;;;;;;20.23;34.81;103004.56;7260120;19;153672;-77
2023/01/28 10:00:13;;;;;;;;;;;;;;;20.20;35.55;103003.13;7260667;19;154330;-77
2023/01/28 10:02:52;;;;;;;;;;;;;;;20.16;35.43;103006.69;7264127;19;154623;-78
2023/01/28 10:05:23;;;;;;;;;;;;;;;20.16;35.20;102995.47;7260354;19;155582;-78
2023/01/28 10:08:02;;;;;;;;;;;;;;;20.13;34.86;102993.16;7266641;19;153726;-78
2023/01/28 10:10:39;;;;;;;;;;;;;;;20.15;35.45;102999.38;7262646;19;153521;-78
2023/01/28 10:13:15;;;;;;;;;;;;;;;20.10;35.16;103002.09;7261684;19;157166;-77
2023/01/28 10:15:57;;;;;;;;;;;;;;;20.04;35.40;103000.28;7256822;19;154713;-77
2023/01/28 10:18:30;;;;;;;;;;;;;;;20.01;35.17;102993.25;7260765;19;157185;-77
2023/01/28 10:21:07;;;;;;;;;;;;;;;19.98;35.44;102994.63;7259822;19;152924;-79
2023/01/28 10:23:39;;;;;;;;;;;;;;;19.96;35.68;103002.44;7261809;19;154659;-78
2023/01/28 10:26:15;;;;;;;;;;;;;;;19.94;35.68;103006.63;7257832;19;154089;-77
2023/01/28 10:28:43;;;;;;;;;;;;;;;19.93;35.38;103007.72;7262888;19;152423;-77
2023/01/28 10:31:12;;;;;;;;;;;;;;;19.92;35.69;103003.19;7262480;19;156466;-77
2023/01/28 10:33:39;;;;;;;;;;;;;;;19.90;35.78;103003.44;7260209;19;154003;-76
2023/01/28 10:36:08;;;;;;;;;;;;;;;19.85;35.90;103000.53;7264670;19;153407;-77
2023/01/28 10:38:36;;;;;;;;;;;;;;;19.84;35.52;103004.47;7261932;19;153775;-77
2023/01/28 10:41:05;;;;;;;;;;;;;;;19.80;35.52;102997.69;7260007;19;153850;-77
2023/01/28 10:43:36;;;;;;;;;;;;;;;19.77;35.92;102981.34;7266637;19;153800;-77
2023/01/28 10:46:13;;;;;;;;;;;;;;;19.75;35.65;102966.72;7261720;19;155435;-77
2023/01/28 10:48:44;;;;;;;;;;;;;;;19.70;35.84;102972.25;7264418;19;153651;-77
2023/01/28 10:51:13;;;;;;;;;;;;;;;19.69;35.79;102981.75;7263311;19;156642;-77
2023/01/28 10:53:42;;;;;;;;;;;;;;;19.70;35.97;102971.41;7264872;19;155843;-78
2023/01/28 10:56:12;;;;;;;;;;;;;;;19.66;36.07;102959.84;7260486;19;154099;-79
2023/01/28 10:58:50;;;;;;;;;;;;;;;19.61;35.96;102948.53;7268791;19;153350;-79
2023/01/28 11:01:17;;;;;;;;;;;;;;;19.67;35.78;102941.06;7263375;19;153900;-77
2023/01/28 11:03:53;;;;;;;;;;;;;;;19.65;36.37;102932.91;7261415;19;154607;-76
2023/01/28 11:06:24;;;;;;;;;;;;;;;19.67;36.07;102936.28;7267457;19;153004;-76
2023/01/28 11:08:51;;;;;;;;;;;;;;;19.71;35.54;102929.09;7265804;19;153167;-76
2023/01/28 11:11:23;;;;;;;;;;;;;;;19.74;35.51;102914.53;7263111;19;153239;-77
2023/01/28 11:13:52;;;;;;;;;;;;;;;19.78;35.19;102909.25;7267328;19;155423;-77
2023/01/28 11:16:19;;;;;;;;;;;;;;;19.81;35.52;102898.38;7261548;19;152990;-77
2023/01/28 11:18:50;;;;;;;;;;;;;;;19.83;35.46;102896.19;7267988;19;153435;-76
2023/01/28 11:21:19;;;;;;;;;;;;;;;19.88;35.38;102895.41;7269249;19;153187;-76
2023/01/28 11:23:49;;;;;;;;;;;;;;;19.92;34.98;102889.03;7263976;19;154571;-78
2023/01/28 11:26:20;;;;;;;;;;;;;;;19.96;35.08;102901.44;7257433;19;154952;-76
2023/01/28 11:28:47;;;;;;;;;;;;;;;20.00;35.22;102912.97;7263639;19;153518;-77
2023/01/28 11:31:15;;;;;;;;;;;;;;;20.03;35.22;102904.06;7259814;19;153558;-77
2023/01/28 11:33:53;;;;;;;;;;;;;;;20.04;35.19;102907.69;7260339;19;154551;-79
2023/01/28 11:36:22;;;;;;;;;;;;;;;20.05;35.42;102906.59;7262932;19;153496;-77
2023/01/28 11:38:55;;;;;;;;;;;;;;;20.08;35.34;102915.34;7263632;19;153550;-77
2023/01/28 11:41:26;;;;;;;;;;;;;;;20.11;35.16;102919.63;7268217;19;153313;-78
2023/01/28 11:43:54;;;;;;;;;;;;;;;20.15;35.53;102915.19;7263926;19;154596;-76
2023/01/28 11:46:31;;;;;;;;;;;;;;;20.17;35.26;102905.38;7257509;19;154288;-77
2023/01/28 11:49:08;;;;;;;;;;;;;;;20.21;35.35;102917.81;7258941;19;152891;-76
2023/01/28 11:51:35;;;;;;;;;;;;;;;20.22;35.04;102907.41;7261890;19;153483;-76
2023/01/28 11:54:08;;;;;;;;;;;;;;;20.26;35.37;102920.66;7260319;19;156436;-76
2023/01/28 11:56:43;;;;;;;;;;;;;;;20.30;35.41;102921.91;7254991;19;152660;-77
2023/01/28 11:59:14;;;;;;;;;;;;;;;20.33;35.25;102921.38;7266221;19;154058;-78
2023/01/28 12:01:41;;;;;;;;;;;;;;;20.37;34.96;102925.38;7267242;19;154050;-76
2023/01/28 12:04:11;;;;;;;;;;;;;;;20.41;35.21;102929.34;7270027;19;154306;-77
2023/01/28 12:06:39;;;;;;;;;;;;;;;20.45;35.10;102938.09;7265151;19;155764;-77
2023/01/28 12:09:09;;;;;;;;;;;;;;;20.47;34.89;102946.28;7264727;19;153700;-76
2023/01/28 12:14:29;;;;;;;;;;;;;;;20.54;34.89;102939.34;7262058;19;155138;-76
2023/01/28 12:17:06;;;;;;;;;;;;;;;20.55;34.81;102938.25;7261224;19;152696;-79
2023/01/28 12:19:43;;;;;;;;;;;;;;;20.62;35.08;102950.16;7262383;19;153329;-76
2023/01/28 12:22:10;;;;;;;;;;;;;;;20.66;34.91;102944.88;7262791;19;153633;-77
2023/01/28 12:24:38;;;;;;;;;;;;;;;20.67;34.60;102929.72;7264865;19;154249;-76
2023/01/28 12:27:14;;;;;;;;;;;;;;;20.68;34.39;102925.78;7270511;19;155460;-77
2023/01/28 12:29:50;;;;;;;;;;;;;;;20.72;34.80;102919.38;7262862;19;154052;-77
2023/01/28 12:32:20;;;;;;;;;;;;;;;20.74;34.70;102910.69;7267409;19;153529;-78
2023/01/28 12:34:54;;;;;;;;;;;;;;;20.76;34.72;102920.53;7260191;19;154459;-76
2023/01/28 12:37:24;;;;;;;;;;;;;;;20.79;34.60;102917.22;7265010;19;154551;-77
2023/01/28 12:39:51;;;;;;;;;;;;;;;20.83;34.64;102921.19;7265547;19;154281;-77
2023/01/28 12:42:26;;;;;;;;;;;;;;;20.87;34.58;102915.91;7262795;19;154658;-77
2023/01/28 12:44:58;;;;;;;;;;;;;;;20.91;34.57;102919.88;7261382;19;153163;-77
2023/01/28 12:47:28;;;;;;;;;;;;;;;20.92;34.61;102913.16;7264659;19;154085;-77
2023/01/28 12:49:57;;;;;;;;;;;;;;;20.95;34.82;102917.38;7271873;19;153445;-78
2023/01/28 12:52:28;;;;;;;;;;;;;;;21.01;34.28;102907.91;7263607;19;153010;-77
2023/01/28 12:54:58;;;;;;;;;;;;;;;21.04;33.88;102904.56;7261437;19;155720;-76
2023/01/28 12:57:26;;;;;;;;;;;;;;;21.05;34.46;102900.66;7263666;19;154154;-77
2023/01/28 13:00:13;;;;;;;;;;;;;;;21.07;33.93;102898.44;7258985;19;153774;-77
2023/01/28 13:02:44;;;;;;;;;;;;;;;21.11;34.22;102886.41;7260722;19;153451;-78
2023/01/28 13:05:12;;;;;;;;;;;;;;;21.12;34.16;102884.44;7259239;19;153310;-77
2023/01/28 13:07:44;;;;;;;;;;;;;;;21.15;33.99;102873.53;7264914;19;153720;-78